Time,TemperatureF,DewpointF,PressureIn,WindDirection,WindDirectionDegrees,WindSpeedMPH,WindSpeedGustMPH,Humidity,HourlyPrecipIn,Conditions,Clouds,dailyrainin,SoftwareType,DateUTC
2013-07-26 00:00:00,58.5,45.1,30.02,North,0,0.0,0.0,61,0.00,,,0.00,WUHU216HW,2013-07-26 04:00:00,
2013-07-26 00:05:00,58.3,44.6,30.02,North,0,0.0,0.0,60,0.00,,,0.00,WUHU216HW,2013-07-26 04:05:00,
2013-07-26 00:10:00,58.1,43.9,30.01,North,0,0.0,0.0,59,0.00,,,0.00,WUHU216HW,2013-07-26 04:10:00,
2013-07-26 00:15:00,58.1,43.9,30.02,North,0,0.0,0.0,59,0.00,,,0.00,WUHU216HW,2013-07-26 04:15:00,
2013-07-26 00:21:00,58.0,43.3,30.01,North,0,0.0,0.0,58,0.00,,,0.00,WUHU216HW,2013-07-26 04:21:00,
2013-07-26 00:26:00,58.0,42.9,30.01,North,0,0.0,0.0,57,0.00,,,0.00,WUHU216HW,2013-07-26 04:26:00,
2013-07-26 00:31:00,58.0,42.3,30.01,North,0,0.0,0.0,56,0.00,,,0.00,WUHU216HW,2013-07-26 04:31:00,
2013-07-26 00:36:00,58.0,42.3,30.01,North,0,0.0,0.0,56,0.00,,,0.00,WUHU216HW,2013-07-26 04:36:00,
2013-07-26 00:41:00,57.8,42.2,30.01,North,0,0.0,0.0,56,0.00,,,0.00,WUHU216HW,2013-07-26 04:41:00,
2013-07-26 00:46:00,57.8,42.2,30.01,North,0,0.0,0.0,56,0.00,,,0.00,WUHU216HW,2013-07-26 04:46:00,
2013-07-26 00:51:00,57.6,41.6,30.01,North,0,0.0,0.0,55,0.00,,,0.00,WUHU216HW,2013-07-26 04:51:00,
2013-07-26 00:56:00,57.6,41.0,30.02,North,0,0.0,0.0,54,0.00,,,0.00,WUHU216HW,2013-07-26 04:56:00,
2013-07-26 01:01:00,57.6,41.0,30.01,North,0,0.0,0.0,54,0.00,,,0.00,WUHU216HW,2013-07-26 05:01:00,
2013-07-26 01:06:00,57.4,41.0,30.01,North,0,0.0,0.0,54,0.00,,,0.00,WUHU216HW,2013-07-26 05:06:00,
2013-07-26 01:11:00,57.4,41.0,30.01,North,0,0.0,0.0,54,0.00,,,0.00,WUHU216HW,2013-07-26 05:11:00,
2013-07-26 01:16:00,57.2,40.8,30.01,North,0,0.0,0.0,54,0.00,,,0.00,WUHU216HW,2013-07-26 05:16:00,
2013-07-26 01:21:00,57.1,38.2,30.01,North,0,0.0,0.0,49,0.00,,,0.00,WUHU216HW,2013-07-26 05:21:00,
2013-07-26 01:26:00,56.9,37.4,30.01,North,0,0.0,0.0,48,0.00,,,0.00,WUHU216HW,2013-07-26 05:26:00,
2013-07-26 01:31:00,56.7,37.8,30.01,North,0,0.0,0.0,49,0.00,,,0.00,WUHU216HW,2013-07-26 05:31:00,
2013-07-26 01:36:00,56.7,37.2,30.01,North,0,0.0,0.0,48,0.00,,,0.00,WUHU216HW,2013-07-26 05:36:00,
2013-07-26 01:41:00,56.7,37.2,30.01,North,0,0.0,0.0,48,0.00,,,0.00,WUHU216HW,2013-07-26 05:41:00,
2013-07-26 01:46:00,56.7,35.5,30.00,North,0,0.0,0.0,45,0.00,,,0.00,WUHU216HW,2013-07-26 05:46:00,
2013-07-26 01:51:00,56.5,34.7,30.01,North,0,0.0,0.0,44,0.00,,,0.00,WUHU216HW,2013-07-26 05:51:00,
2013-07-26 01:57:00,56.3,36.3,30.01,North,0,0.0,0.0,47,0.00,,,0.00,WUHU216HW,2013-07-26 05:57:00,
2013-07-26 02:02:00,56.3,36.8,30.01,North,0,0.0,0.0,48,0.00,,,0.00,WUHU216HW,2013-07-26 06:02:00,
2013-07-26 02:07:00,56.3,36.8,30.00,North,0,0.0,0.0,48,0.00,,,0.00,WUHU216HW,2013-07-26 06:07:00,
2013-07-26 02:12:00,56.3,36.8,30.00,North,0,0.0,0.0,48,0.00,,,0.00,WUHU216HW,2013-07-26 06:12:00,
2013-07-26 02:17:00,56.2,36.6,30.01,North,0,0.0,0.0,48,0.00,,,0.00,WUHU216HW,2013-07-26 06:17:00,
2013-07-26 02:22:00,56.2,36.1,30.01,North,0,0.0,0.0,47,0.00,,,0.00,WUHU216HW,2013-07-26 06:22:00,
2013-07-26 02:27:00,56.2,35.6,30.01,North,0,0.0,0.0,46,0.00,,,0.00,WUHU216HW,2013-07-26 06:27:00,
2013-07-26 02:32:00,56.2,35.0,30.01,North,0,0.0,0.0,45,0.00,,,0.00,WUHU216HW,2013-07-26 06:32:00,
2013-07-26 02:37:00,56.0,34.8,30.01,North,0,0.0,0.0,45,0.00,,,0.00,WUHU216HW,2013-07-26 06:37:00,
2013-07-26 02:42:00,55.8,34.1,30.00,North,0,0.0,0.0,44,0.00,,,0.00,WUHU216HW,2013-07-26 06:42:00,
2013-07-26 02:47:00,55.6,32.8,30.00,North,0,0.0,0.0,42,0.00,,,0.00,WUHU216HW,2013-07-26 06:47:00,
2013-07-26 02:52:00,55.4,31.5,30.00,North,0,0.0,0.0,40,0.00,,,0.00,WUHU216HW,2013-07-26 06:52:00,
2013-07-26 02:57:00,55.4,32.0,30.00,North,0,0.0,0.0,41,0.00,,,0.00,WUHU216HW,2013-07-26 06:57:00,
2013-07-26 03:02:00,55.3,31.9,30.00,North,0,0.0,0.0,41,0.00,,,0.00,WUHU216HW,2013-07-26 07:02:00,
2013-07-26 03:07:00,55.3,33.0,30.01,North,0,0.0,0.0,43,0.00,,,0.00,WUHU216HW,2013-07-26 07:07:00,
2013-07-26 03:12:00,55.3,33.6,30.01,North,0,0.0,0.0,44,0.00,,,0.00,WUHU216HW,2013-07-26 07:12:00,
2013-07-26 03:17:00,55.1,33.9,30.01,North,0,0.0,0.0,45,0.00,,,0.00,WUHU216HW,2013-07-26 07:17:00,
2013-07-26 03:22:00,55.1,33.4,30.01,North,0,0.0,0.0,44,0.00,,,0.00,WUHU216HW,2013-07-26 07:22:00,
2013-07-26 03:27:00,55.1,33.4,30.01,North,0,0.0,0.0,44,0.00,,,0.00,WUHU216HW,2013-07-26 07:27:00,
2013-07-26 03:32:00,54.9,32.7,30.01,North,0,0.0,0.0,43,0.00,,,0.00,WUHU216HW,2013-07-26 07:32:00,
2013-07-26 03:37:00,54.7,30.2,30.00,North,0,0.0,0.0,39,0.00,,,0.00,WUHU216HW,2013-07-26 07:37:00,
2013-07-26 03:42:00,54.5,25.8,30.00,North,0,0.0,0.0,33,0.00,,,0.00,WUHU216HW,2013-07-26 07:42:00,
2013-07-26 03:47:00,54.5,27.3,30.00,North,0,0.0,0.0,35,0.00,,,0.00,WUHU216HW,2013-07-26 07:47:00,
2013-07-26 03:52:00,54.7,26.6,30.00,North,0,0.0,0.0,34,0.00,,,0.00,WUHU216HW,2013-07-26 07:52:00,
2013-07-26 03:57:00,54.7,26.0,30.00,North,0,0.0,0.0,33,0.00,,,0.00,WUHU216HW,2013-07-26 07:57:00,
2013-07-26 04:02:00,54.9,26.8,30.00,North,0,0.0,0.0,34,0.00,,,0.00,WUHU216HW,2013-07-26 08:02:00,
2013-07-26 04:07:00,54.9,24.8,30.00,North,0,0.0,0.0,31,0.00,,,0.00,WUHU216HW,2013-07-26 08:07:00,
2013-07-26 04:12:00,54.9,24.8,30.00,North,0,0.0,0.0,31,0.00,,,0.00,WUHU216HW,2013-07-26 08:12:00,
2013-07-26 04:17:00,55.1,24.2,30.00,North,0,0.0,0.0,30,0.00,,,0.00,WUHU216HW,2013-07-26 08:17:00,
2013-07-26 04:22:00,55.3,25.8,30.00,North,0,0.0,0.0,32,0.00,,,0.00,WUHU216HW,2013-07-26 08:22:00,
2013-07-26 04:27:00,55.1,25.6,30.00,North,0,0.0,0.0,32,0.00,,,0.00,WUHU216HW,2013-07-26 08:27:00,
2013-07-26 04:32:00,55.1,26.3,30.00,North,0,0.0,0.0,33,0.00,,,0.00,WUHU216HW,2013-07-26 08:32:00,
2013-07-26 04:37:00,55.1,27.0,30.00,North,0,0.0,0.0,34,0.00,,,0.00,WUHU216HW,2013-07-26 08:37:00,
2013-07-26 04:42:00,55.1,28.4,30.00,North,0,0.0,0.0,36,0.00,,,0.00,WUHU216HW,2013-07-26 08:42:00,
2013-07-26 04:47:00,54.9,28.3,30.00,North,0,0.0,0.0,36,0.00,,,0.00,WUHU216HW,2013-07-26 08:47:00,
2013-07-26 04:52:00,55.1,29.1,30.00,North,0,0.0,0.0,37,0.00,,,0.00,WUHU216HW,2013-07-26 08:52:00,
2013-07-26 04:57:00,54.9,28.9,30.00,North,0,0.0,0.0,37,0.00,,,0.00,WUHU216HW,2013-07-26 08:57:00,
2013-07-26 05:02:00,54.9,28.3,30.01,North,0,0.0,0.0,36,0.00,,,0.00,WUHU216HW,2013-07-26 09:02:00,
2013-07-26 05:07:00,54.9,28.3,30.00,North,0,0.0,0.0,36,0.00,,,0.00,WUHU216HW,2013-07-26 09:07:00,
2013-07-26 05:13:00,54.7,28.1,30.00,North,0,0.0,0.0,36,0.00,,,0.00,WUHU216HW,2013-07-26 09:13:00,
2013-07-26 05:18:00,54.7,26.6,30.00,North,0,0.0,0.0,34,0.00,,,0.00,WUHU216HW,2013-07-26 09:18:00,
2013-07-26 05:23:00,54.7,25.3,30.00,North,0,0.0,0.0,32,0.00,,,0.00,WUHU216HW,2013-07-26 09:23:00,
2013-07-26 05:28:00,54.9,25.5,30.00,North,0,0.0,0.0,32,0.00,,,0.00,WUHU216HW,2013-07-26 09:28:00,
2013-07-26 05:33:00,54.9,25.5,30.00,North,0,0.0,0.0,32,0.00,,,0.00,WUHU216HW,2013-07-26 09:33:00,
2013-07-26 05:38:00,55.1,26.3,30.01,North,0,0.0,0.0,33,0.00,,,0.00,WUHU216HW,2013-07-26 09:38:00,
2013-07-26 05:43:00,55.1,27.0,30.01,North,0,0.0,0.0,34,0.00,,,0.00,WUHU216HW,2013-07-26 09:43:00,
2013-07-26 05:48:00,54.9,26.8,30.01,North,0,0.0,0.0,34,0.00,,,0.00,WUHU216HW,2013-07-26 09:48:00,
2013-07-26 05:53:00,54.9,26.8,30.01,North,0,0.0,0.0,34,0.00,,,0.00,WUHU216HW,2013-07-26 09:53:00,
2013-07-26 05:58:00,55.1,26.3,30.01,North,0,0.0,0.0,33,0.00,,,0.00,WUHU216HW,2013-07-26 09:58:00,
2013-07-26 06:03:00,54.9,24.0,30.00,North,0,0.0,0.0,30,0.00,,,0.00,WUHU216HW,2013-07-26 10:03:00,
2013-07-26 06:08:00,54.9,24.0,30.00,North,0,0.0,0.0,30,0.00,,,0.00,WUHU216HW,2013-07-26 10:08:00,
2013-07-26 06:13:00,54.9,21.3,30.00,North,0,0.0,0.0,27,0.00,,,0.00,WUHU216HW,2013-07-26 10:13:00,
2013-07-26 06:18:00,54.9,19.4,30.00,North,0,0.0,0.0,25,0.00,,,0.00,WUHU216HW,2013-07-26 10:18:00,
2013-07-26 06:23:00,54.9,16.6,30.00,North,0,0.0,0.0,22,0.00,,,0.00,WUHU216HW,2013-07-26 10:23:00,
2013-07-26 06:28:00,54.7,15.4,30.01,North,0,0.0,0.0,21,0.00,,,0.00,WUHU216HW,2013-07-26 10:28:00,
2013-07-26 06:33:00,54.7,8.4,30.01,North,0,0.0,0.0,16,0.00,,,0.00,WUHU216HW,2013-07-26 10:33:00,
2013-07-26 06:38:00,54.7,3.8,30.01,North,0,0.0,0.0,13,0.00,,,0.00,WUHU216HW,2013-07-26 10:38:00,
2013-07-26 06:43:00,54.9,8.6,30.01,North,0,0.0,0.0,16,0.00,,,0.00,WUHU216HW,2013-07-26 10:43:00,
2013-07-26 06:48:00,55.1,13.2,30.01,North,0,0.0,0.0,19,0.00,,,0.00,WUHU216HW,2013-07-26 10:48:00,
2013-07-26 06:53:00,55.1,13.2,30.01,North,0,0.0,0.0,19,0.00,,,0.00,WUHU216HW,2013-07-26 10:53:00,
2013-07-26 06:58:00,55.3,15.9,30.01,North,0,0.0,0.0,21,0.00,,,0.00,WUHU216HW,2013-07-26 10:58:00,
2013-07-26 07:03:00,55.1,15.8,30.01,North,0,0.0,0.0,21,0.00,,,0.00,WUHU216HW,2013-07-26 11:03:00,
2013-07-26 07:08:00,55.3,8.8,30.00,North,0,0.0,0.0,16,0.00,,,0.00,WUHU216HW,2013-07-26 11:08:00,
2013-07-26 07:13:00,55.4,7.5,30.00,North,0,0.0,0.0,15,0.00,,,0.00,WUHU216HW,2013-07-26 11:13:00,
2013-07-26 07:18:00,55.6,3.0,30.00,North,0,0.0,0.0,12,0.00,,,0.00,WUHU216HW,2013-07-26 11:18:00,
2013-07-26 07:23:00,56.2,9.5,30.00,North,0,0.0,0.0,16,0.00,,,0.00,WUHU216HW,2013-07-26 11:23:00,
2013-07-26 07:28:00,56.7,13.1,30.00,North,0,0.0,0.0,18,0.00,,,0.00,WUHU216HW,2013-07-26 11:28:00,
2013-07-26 07:33:00,57.1,21.2,30.00,North,0,0.0,0.0,25,0.00,,,0.00,WUHU216HW,2013-07-26 11:33:00,
2013-07-26 07:38:00,57.2,26.1,30.00,North,0,0.0,0.0,30,0.00,,,0.00,WUHU216HW,2013-07-26 11:38:00,
2013-07-26 07:43:00,57.4,24.4,29.99,North,0,0.0,0.0,28,0.00,,,0.00,WUHU216HW,2013-07-26 11:43:00,
2013-07-26 07:48:00,57.6,27.8,29.99,North,0,0.0,0.0,32,0.00,,,0.00,WUHU216HW,2013-07-26 11:48:00,
2013-07-26 07:53:00,57.8,29.4,29.99,North,0,0.0,0.0,34,0.00,,,0.00,WUHU216HW,2013-07-26 11:53:00,
2013-07-26 07:58:00,58.1,35.1,30.00,North,0,0.0,0.0,42,0.00,,,0.00,WUHU216HW,2013-07-26 11:58:00,
2013-07-26 08:03:00,58.3,37.5,30.00,North,0,0.0,0.0,46,0.00,,,0.00,WUHU216HW,2013-07-26 12:03:00,
2013-07-26 08:09:00,59.0,40.5,30.00,North,0,0.0,0.0,50,0.00,,,0.00,WUHU216HW,2013-07-26 12:09:00,
2013-07-26 08:14:00,59.0,41.0,29.99,North,0,0.0,0.0,51,0.00,,,0.00,WUHU216HW,2013-07-26 12:14:00,
2013-07-26 08:19:00,59.6,42.8,29.99,North,0,0.0,0.0,54,0.00,,,0.00,WUHU216HW,2013-07-26 12:19:00,
2013-07-26 08:24:00,59.8,45.5,29.99,North,0,0.0,0.0,59,0.00,,,0.00,WUHU216HW,2013-07-26 12:24:00,
2013-07-26 08:29:00,59.9,46.5,29.99,North,0,0.0,0.0,61,0.00,,,0.00,WUHU216HW,2013-07-26 12:29:00,
2013-07-26 08:34:00,60.1,47.1,29.98,North,0,0.0,0.0,62,0.00,,,0.00,WUHU216HW,2013-07-26 12:34:00,
2013-07-26 08:39:00,60.5,47.1,29.98,North,0,0.0,0.0,61,0.00,,,0.00,WUHU216HW,2013-07-26 12:39:00,
2013-07-26 08:44:00,61.2,48.2,29.98,North,0,0.0,0.0,62,0.00,,,0.00,WUHU216HW,2013-07-26 12:44:00,
2013-07-26 08:49:00,61.6,49.3,29.98,North,0,0.0,0.0,64,0.00,,,0.00,WUHU216HW,2013-07-26 12:49:00,
2013-07-26 08:54:00,61.9,49.2,29.98,North,0,0.0,0.0,63,0.00,,,0.00,WUHU216HW,2013-07-26 12:54:00,
2013-07-26 08:59:00,62.3,50.3,29.98,North,0,0.0,0.0,65,0.00,,,0.00,WUHU216HW,2013-07-26 12:59:00,
2013-07-26 09:04:00,63.0,52.3,29.98,North,0,0.0,0.0,68,0.00,,,0.00,WUHU216HW,2013-07-26 13:04:00,
2013-07-26 09:09:00,63.0,52.3,29.98,North,0,0.0,0.0,68,0.00,,,0.00,WUHU216HW,2013-07-26 13:09:00,
2013-07-26 09:14:00,63.0,52.3,29.98,North,0,0.0,0.0,68,0.00,,,0.00,WUHU216HW,2013-07-26 13:14:00,
2013-07-26 09:19:00,63.2,52.8,29.98,North,0,0.0,0.0,69,0.00,,,0.00,WUHU216HW,2013-07-26 13:19:00,
2013-07-26 09:24:00,63.5,53.2,29.98,North,0,0.0,0.0,69,0.00,,,0.00,WUHU216HW,2013-07-26 13:24:00,
2013-07-26 09:29:00,63.7,53.4,29.97,North,0,0.0,0.0,69,0.00,,,0.00,WUHU216HW,2013-07-26 13:29:00,
2013-07-26 09:34:00,64.3,53.9,29.97,North,0,0.0,0.0,69,0.00,,,0.00,WUHU216HW,2013-07-26 13:34:00,
2013-07-26 09:39:00,64.4,54.1,29.97,North,0,0.0,0.0,69,0.00,,,0.00,WUHU216HW,2013-07-26 13:39:00,
2013-07-26 09:44:00,64.6,54.3,29.97,North,0,0.0,0.0,69,0.00,,,0.00,WUHU216HW,2013-07-26 13:44:00,
2013-07-26 09:49:00,64.6,54.3,29.97,North,0,0.0,0.0,69,0.00,,,0.00,WUHU216HW,2013-07-26 13:49:00,
2013-07-26 09:54:00,64.6,54.3,29.97,North,0,0.0,0.0,69,0.00,,,0.00,WUHU216HW,2013-07-26 13:54:00,
2013-07-26 09:59:00,64.8,54.5,29.97,North,0,0.0,0.0,69,0.00,,,0.00,WUHU216HW,2013-07-26 13:59:00,
2013-07-26 10:04:00,65.2,54.7,29.97,North,0,0.0,0.0,69,0.00,,,0.00,WUHU216HW,2013-07-26 14:04:00,
2013-07-26 10:09:00,65.2,54.7,29.97,North,0,0.0,0.0,69,0.00,,,0.00,WUHU216HW,2013-07-26 14:09:00,
2013-07-26 10:14:00,65.5,55.1,29.97,North,0,0.0,0.0,69,0.00,,,0.00,WUHU216HW,2013-07-26 14:14:00,
2013-07-26 10:19:00,65.7,55.3,29.97,North,0,0.0,0.0,69,0.00,,,0.00,WUHU216HW,2013-07-26 14:19:00,
2013-07-26 10:24:00,65.9,55.5,29.97,North,0,0.0,0.0,69,0.00,,,0.00,WUHU216HW,2013-07-26 14:24:00,
2013-07-26 10:29:00,66.2,55.7,29.97,North,0,0.0,0.0,69,0.00,,,0.00,WUHU216HW,2013-07-26 14:29:00,
2013-07-26 10:34:00,66.6,56.1,29.97,North,0,0.0,0.0,69,0.00,,,0.00,WUHU216HW,2013-07-26 14:34:00,
2013-07-26 10:39:00,67.0,56.4,29.97,North,0,0.0,0.0,69,0.00,,,0.00,WUHU216HW,2013-07-26 14:39:00,
2013-07-26 10:44:00,67.3,56.8,29.96,North,0,0.0,0.0,69,0.00,,,0.00,WUHU216HW,2013-07-26 14:44:00,
2013-07-26 10:49:00,67.1,56.6,29.96,North,0,0.0,0.0,69,0.00,,,0.00,WUHU216HW,2013-07-26 14:49:00,
2013-07-26 10:54:00,67.3,56.8,29.96,North,0,0.0,0.0,69,0.00,,,0.00,WUHU216HW,2013-07-26 14:54:00,
2013-07-26 11:00:00,67.5,57.4,29.95,North,0,0.0,0.0,70,0.00,,,0.00,WUHU216HW,2013-07-26 15:00:00,
2013-07-26 11:05:00,67.7,57.2,29.95,North,0,0.0,0.0,69,0.00,,,0.00,WUHU216HW,2013-07-26 15:05:00,
2013-07-26 11:10:00,68.2,58.2,29.95,North,0,0.0,0.0,70,0.00,,,0.00,WUHU216HW,2013-07-26 15:10:00,
2013-07-26 11:15:00,68.6,58.1,29.96,North,0,0.0,0.0,69,0.00,,,0.00,WUHU216HW,2013-07-26 15:15:00,
2013-07-26 11:20:00,68.6,58.1,29.96,North,0,0.0,0.0,69,0.00,,,0.00,WUHU216HW,2013-07-26 15:20:00,
2013-07-26 11:25:00,68.8,58.1,29.96,North,0,0.0,0.0,69,0.00,,,0.00,WUHU216HW,2013-07-26 15:25:00,
2013-07-26 11:30:00,69.5,58.9,29.96,North,0,0.0,0.0,69,0.00,,,0.00,WUHU216HW,2013-07-26 15:30:00,
2013-07-26 11:35:00,69.8,59.1,29.95,North,0,0.0,0.0,69,0.00,,,0.00,WUHU216HW,2013-07-26 15:35:00,
2013-07-26 11:40:00,70.4,59.7,29.95,North,0,0.0,0.0,69,0.00,,,0.00,WUHU216HW,2013-07-26 15:40:00,
2013-07-26 11:45:00,70.4,58.9,29.95,North,0,0.0,0.0,67,0.00,,,0.00,WUHU216HW,2013-07-26 15:45:00,
2013-07-26 11:50:00,70.2,59.1,29.95,North,0,0.0,0.0,68,0.00,,,0.00,WUHU216HW,2013-07-26 15:50:00,
2013-07-26 11:55:00,70.2,59.1,29.95,North,0,0.0,0.0,68,0.00,,,0.00,WUHU216HW,2013-07-26 15:55:00,
2013-07-26 12:00:00,70.2,59.5,29.95,North,0,0.0,0.0,69,0.00,,,0.00,WUHU216HW,2013-07-26 16:00:00,
2013-07-26 12:05:00,70.2,59.1,29.95,North,0,0.0,0.0,68,0.00,,,0.00,WUHU216HW,2013-07-26 16:05:00,
2013-07-26 12:10:00,69.8,57.5,29.95,North,0,0.0,0.0,65,0.00,,,0.00,WUHU216HW,2013-07-26 16:10:00,
2013-07-26 12:15:00,70.6,59.1,29.95,North,0,0.0,0.0,67,0.00,,,0.00,WUHU216HW,2013-07-26 16:15:00,
2013-07-26 12:20:00,70.6,57.8,29.95,North,0,0.0,0.0,64,0.00,,,0.00,WUHU216HW,2013-07-26 16:20:00,
2013-07-26 12:25:00,70.7,58.3,29.95,North,0,0.0,0.0,65,0.00,,,0.00,WUHU216HW,2013-07-26 16:25:00,
2013-07-26 12:30:00,70.9,58.2,29.95,North,0,0.0,0.0,64,0.00,,,0.00,WUHU216HW,2013-07-26 16:30:00,
2013-07-26 12:35:00,70.9,58.5,29.95,North,0,0.0,0.0,65,0.00,,,0.00,WUHU216HW,2013-07-26 16:35:00,
2013-07-26 12:40:00,70.9,58.2,29.95,North,0,0.0,0.0,64,0.00,,,0.00,WUHU216HW,2013-07-26 16:40:00,
2013-07-26 12:45:00,70.9,57.7,29.95,North,0,0.0,0.0,63,0.00,,,0.00,WUHU216HW,2013-07-26 16:45:00,
2013-07-26 12:50:00,71.1,58.3,29.94,North,0,0.0,0.0,64,0.00,,,0.00,WUHU216HW,2013-07-26 16:50:00,
2013-07-26 12:55:00,71.6,59.2,29.94,North,0,0.0,0.0,65,0.00,,,0.00,WUHU216HW,2013-07-26 16:55:00,
2013-07-26 13:00:00,71.6,59.2,29.94,North,0,0.0,0.0,65,0.00,,,0.00,WUHU216HW,2013-07-26 17:00:00,
2013-07-26 13:05:00,71.6,58.8,29.94,North,0,0.0,0.0,64,0.00,,,0.00,WUHU216HW,2013-07-26 17:05:00,
2013-07-26 13:10:00,71.5,59.0,29.94,North,0,0.0,0.0,65,0.00,,,0.00,WUHU216HW,2013-07-26 17:10:00,
2013-07-26 13:15:00,71.3,58.4,29.93,North,0,0.0,0.0,64,0.00,,,0.00,WUHU216HW,2013-07-26 17:15:00,
2013-07-26 13:20:00,71.8,59.9,29.93,North,0,0.0,0.0,66,0.00,,,0.00,WUHU216HW,2013-07-26 17:20:00,
2013-07-26 13:25:00,71.6,59.2,29.94,North,0,0.0,0.0,65,0.00,,,0.00,WUHU216HW,2013-07-26 17:25:00,
2013-07-26 13:30:00,71.6,59.2,29.93,North,0,0.0,0.0,65,0.00,,,0.00,WUHU216HW,2013-07-26 17:30:00,
2013-07-26 13:35:00,71.6,58.8,29.93,North,0,0.0,0.0,64,0.00,,,0.00,WUHU216HW,2013-07-26 17:35:00,
2013-07-26 13:40:00,71.8,58.5,29.93,North,0,0.0,0.0,63,0.00,,,0.00,WUHU216HW,2013-07-26 17:40:00,
2013-07-26 13:45:00,72.2,59.3,29.93,North,0,0.0,0.0,64,0.00,,,0.00,WUHU216HW,2013-07-26 17:45:00,
2013-07-26 13:50:00,72.7,59.0,29.93,North,0,0.0,0.0,62,0.00,,,0.00,WUHU216HW,2013-07-26 17:50:00,
2013-07-26 13:55:00,72.7,59.4,29.93,North,0,0.0,0.0,63,0.00,,,0.00,WUHU216HW,2013-07-26 17:55:00,
2013-07-26 14:00:00,72.7,60.2,29.93,North,0,0.0,0.0,65,0.00,,,0.00,WUHU216HW,2013-07-26 18:00:00,
2013-07-26 14:05:00,72.7,59.8,29.93,North,0,0.0,0.0,64,0.00,,,0.00,WUHU216HW,2013-07-26 18:05:00,
2013-07-26 14:10:00,72.4,60.0,29.93,North,0,0.0,0.0,65,0.00,,,0.00,WUHU216HW,2013-07-26 18:10:00,
2013-07-26 14:15:00,72.4,60.0,29.93,North,0,0.0,0.0,65,0.00,,,0.00,WUHU216HW,2013-07-26 18:15:00,
2013-07-26 14:20:00,72.2,59.3,29.92,North,0,0.0,0.0,64,0.00,,,0.00,WUHU216HW,2013-07-26 18:20:00,
2013-07-26 14:25:00,72.0,60.0,29.92,North,0,0.0,0.0,66,0.00,,,0.00,WUHU216HW,2013-07-26 18:25:00,
2013-07-26 14:30:00,72.4,59.5,29.93,North,0,0.0,0.0,64,0.00,,,0.00,WUHU216HW,2013-07-26 18:30:00,
2013-07-26 14:35:00,72.4,59.5,29.92,North,0,0.0,0.0,64,0.00,,,0.00,WUHU216HW,2013-07-26 18:35:00,
2013-07-26 14:40:00,72.7,59.4,29.92,North,0,0.0,0.0,63,0.00,,,0.00,WUHU216HW,2013-07-26 18:40:00,
2013-07-26 14:45:00,72.0,60.0,29.92,North,0,0.0,0.0,66,0.00,,,0.00,WUHU216HW,2013-07-26 18:45:00,
2013-07-26 14:50:00,72.0,60.0,29.92,North,0,0.0,0.0,66,0.00,,,0.00,WUHU216HW,2013-07-26 18:50:00,
2013-07-26 14:55:00,71.6,59.7,29.92,North,0,0.0,0.0,66,0.00,,,0.00,WUHU216HW,2013-07-26 18:55:00,
2013-07-26 15:00:00,71.6,59.2,29.92,North,0,0.0,0.0,65,0.00,,,0.00,WUHU216HW,2013-07-26 19:00:00,
2013-07-26 15:05:00,71.6,59.7,29.91,North,0,0.0,0.0,66,0.00,,,0.00,WUHU216HW,2013-07-26 19:05:00,
2013-07-26 15:10:00,71.6,59.7,29.91,North,0,0.0,0.0,66,0.00,,,0.00,WUHU216HW,2013-07-26 19:10:00,
2013-07-26 15:15:00,71.6,59.7,29.91,North,0,0.0,0.0,66,0.00,,,0.00,WUHU216HW,2013-07-26 19:15:00,
2013-07-26 15:20:00,71.6,60.1,29.92,North,0,0.0,0.0,67,0.00,,,0.00,WUHU216HW,2013-07-26 19:20:00,
2013-07-26 15:25:00,71.5,60.0,29.92,North,0,0.0,0.0,67,0.00,,,0.00,WUHU216HW,2013-07-26 19:25:00,
2013-07-26 15:30:00,71.6,60.1,29.92,North,0,0.0,0.0,67,0.00,,,0.00,WUHU216HW,2013-07-26 19:30:00,
2013-07-26 15:36:00,71.8,61.1,29.92,North,0,0.0,0.0,69,0.00,,,0.00,WUHU216HW,2013-07-26 19:36:00,
2013-07-26 15:41:00,72.2,61.0,29.91,North,0,0.0,0.0,68,0.00,,,0.00,WUHU216HW,2013-07-26 19:41:00,
2013-07-26 15:46:00,72.2,60.2,29.91,North,0,0.0,0.0,66,0.00,,,0.00,WUHU216HW,2013-07-26 19:46:00,
2013-07-26 15:51:00,72.0,60.0,29.91,North,0,0.0,0.0,66,0.00,,,0.00,WUHU216HW,2013-07-26 19:51:00,
2013-07-26 15:56:00,72.0,60.0,29.91,North,0,0.0,0.0,66,0.00,,,0.00,WUHU216HW,2013-07-26 19:56:00,
2013-07-26 16:01:00,72.0,60.8,29.91,North,0,0.0,0.0,68,0.00,,,0.00,WUHU216HW,2013-07-26 20:01:00,
2013-07-26 16:06:00,72.0,59.6,29.91,North,0,0.0,0.0,65,0.00,,,0.00,WUHU216HW,2013-07-26 20:06:00,
2013-07-26 16:11:00,72.4,60.3,29.91,North,0,0.0,0.0,66,0.00,,,0.00,WUHU216HW,2013-07-26 20:11:00,
2013-07-26 16:16:00,72.2,60.2,29.91,North,0,0.0,0.0,66,0.00,,,0.00,WUHU216HW,2013-07-26 20:16:00,
2013-07-26 16:21:00,72.0,60.0,29.91,North,0,0.0,0.0,66,0.00,,,0.00,WUHU216HW,2013-07-26 20:21:00,
2013-07-26 16:26:00,72.2,60.6,29.92,North,0,0.0,0.0,67,0.00,,,0.00,WUHU216HW,2013-07-26 20:26:00,
2013-07-26 16:31:00,72.2,61.5,29.92,North,0,0.0,0.0,69,0.00,,,0.00,WUHU216HW,2013-07-26 20:31:00,
2013-07-26 16:36:00,72.0,60.4,29.92,North,0,0.0,0.0,67,0.00,,,0.00,WUHU216HW,2013-07-26 20:36:00,
2013-07-26 16:41:00,71.5,59.5,29.92,North,0,0.0,0.0,66,0.00,,,0.00,WUHU216HW,2013-07-26 20:41:00,
2013-07-26 16:46:00,71.6,60.1,29.92,North,0,0.0,0.0,67,0.00,,,0.00,WUHU216HW,2013-07-26 20:46:00,
2013-07-26 16:51:00,71.6,59.7,29.92,North,0,0.0,0.0,66,0.00,,,0.00,WUHU216HW,2013-07-26 20:51:00,
2013-07-26 16:56:00,71.8,60.3,29.92,North,0,0.0,0.0,67,0.00,,,0.00,WUHU216HW,2013-07-26 20:56:00,
2013-07-26 17:01:00,72.0,60.0,29.92,North,0,0.0,0.0,66,0.00,,,0.00,WUHU216HW,2013-07-26 21:01:00,
2013-07-26 17:06:00,72.7,60.7,29.92,North,0,0.0,0.0,66,0.00,,,0.00,WUHU216HW,2013-07-26 21:06:00,
2013-07-26 17:11:00,72.7,60.7,29.92,North,0,0.0,0.0,66,0.00,,,0.00,WUHU216HW,2013-07-26 21:11:00,
2013-07-26 17:16:00,73.4,61.4,29.92,North,0,0.0,0.0,66,0.00,,,0.00,WUHU216HW,2013-07-26 21:16:00,
2013-07-26 17:21:00,73.4,60.9,29.92,North,0,0.0,0.0,65,0.00,,,0.00,WUHU216HW,2013-07-26 21:21:00,
2013-07-26 17:26:00,73.1,60.1,29.92,North,0,0.0,0.0,64,0.00,,,0.00,WUHU216HW,2013-07-26 21:26:00,
2013-07-26 17:31:00,73.1,59.7,29.92,North,0,0.0,0.0,63,0.00,,,0.00,WUHU216HW,2013-07-26 21:31:00,
2013-07-26 17:36:00,73.8,60.9,29.92,North,0,0.0,0.0,64,0.00,,,0.00,WUHU216HW,2013-07-26 21:36:00,
2013-07-26 17:42:00,74.0,59.7,29.92,North,0,0.0,0.0,61,0.00,,,0.00,WUHU216HW,2013-07-26 21:42:00,
2013-07-26 17:47:00,73.8,59.5,29.92,North,0,0.0,0.0,61,0.00,,,0.00,WUHU216HW,2013-07-26 21:47:00,
2013-07-26 17:52:00,73.4,60.0,29.91,North,0,0.0,0.0,63,0.00,,,0.00,WUHU216HW,2013-07-26 21:52:00,
2013-07-26 17:57:00,72.2,60.2,29.91,North,0,0.0,0.0,66,0.00,,,0.00,WUHU216HW,2013-07-26 21:57:00,
2013-07-26 18:02:00,71.6,59.7,29.92,North,0,0.0,0.0,66,0.00,,,0.00,WUHU216HW,2013-07-26 22:02:00,
2013-07-26 18:07:00,71.1,59.1,29.91,North,0,0.0,0.0,66,0.00,,,0.00,WUHU216HW,2013-07-26 22:07:00,
2013-07-26 18:12:00,70.9,59.4,29.91,North,0,0.0,0.0,67,0.00,,,0.00,WUHU216HW,2013-07-26 22:12:00,
2013-07-26 18:17:00,70.4,59.3,29.91,North,0,0.0,0.0,68,0.00,,,0.00,WUHU216HW,2013-07-26 22:17:00,
2013-07-26 18:22:00,69.8,59.1,29.91,North,0,0.0,0.0,69,0.00,,,0.00,WUHU216HW,2013-07-26 22:22:00,
2013-07-26 18:27:00,69.7,59.4,29.91,North,0,0.0,0.0,70,0.00,,,0.00,WUHU216HW,2013-07-26 22:27:00,
2013-07-26 18:32:00,69.5,59.2,29.91,North,0,0.0,0.0,70,0.00,,,0.00,WUHU216HW,2013-07-26 22:32:00,
2013-07-26 18:37:00,69.1,59.0,29.91,North,0,0.0,0.0,70,0.00,,,0.00,WUHU216HW,2013-07-26 22:37:00,
2013-07-26 18:42:00,68.9,58.8,29.92,North,0,0.0,0.0,70,0.00,,,0.00,WUHU216HW,2013-07-26 22:42:00,
2013-07-26 18:47:00,68.9,58.8,29.92,North,0,0.0,0.0,70,0.00,,,0.00,WUHU216HW,2013-07-26 22:47:00,
2013-07-26 18:52:00,68.9,58.8,29.92,North,0,0.0,0.0,70,0.00,,,0.00,WUHU216HW,2013-07-26 22:52:00,
2013-07-26 18:57:00,68.8,58.6,29.92,North,0,0.0,0.0,70,0.00,,,0.00,WUHU216HW,2013-07-26 22:57:00,
2013-07-26 19:02:00,68.8,58.6,29.92,North,0,0.0,0.0,70,0.00,,,0.00,WUHU216HW,2013-07-26 23:02:00,
2013-07-26 19:07:00,68.4,58.3,29.92,North,0,0.0,0.0,70,0.00,,,0.00,WUHU216HW,2013-07-26 23:07:00,
2013-07-26 19:12:00,68.2,58.5,29.92,North,0,0.0,0.0,71,0.00,,,0.00,WUHU216HW,2013-07-26 23:12:00,
2013-07-26 19:17:00,68.0,58.3,29.92,North,0,0.0,0.0,71,0.00,,,0.00,WUHU216HW,2013-07-26 23:17:00,
2013-07-26 19:22:00,67.7,58.0,29.92,North,0,0.0,0.0,71,0.00,,,0.00,WUHU216HW,2013-07-26 23:22:00,
2013-07-26 19:27:00,67.5,57.4,29.92,North,0,0.0,0.0,70,0.00,,,0.00,WUHU216HW,2013-07-26 23:27:00,
2013-07-26 19:32:00,67.0,56.9,29.92,North,0,0.0,0.0,70,0.00,,,0.00,WUHU216HW,2013-07-26 23:32:00,
2013-07-26 19:37:00,66.6,56.5,29.92,North,0,0.0,0.0,70,0.00,,,0.00,WUHU216HW,2013-07-26 23:37:00,
2013-07-26 19:42:00,66.6,56.5,29.92,North,0,0.0,0.0,70,0.00,,,0.00,WUHU216HW,2013-07-26 23:42:00,
2013-07-26 19:47:00,66.4,56.3,29.92,North,0,0.0,0.0,70,0.00,,,0.00,WUHU216HW,2013-07-26 23:47:00,
2013-07-26 19:52:00,65.9,55.8,29.92,North,0,0.0,0.0,70,0.00,,,0.00,WUHU216HW,2013-07-26 23:52:00,
2013-07-26 19:57:00,65.7,55.7,29.92,North,0,0.0,0.0,70,0.00,,,0.00,WUHU216HW,2013-07-26 23:57:00,
2013-07-26 20:02:00,65.3,55.4,29.92,North,0,0.0,0.0,70,0.00,,,0.00,WUHU216HW,2013-07-27 00:02:00,
2013-07-26 20:07:00,65.0,55.0,29.92,North,0,0.0,0.0,70,0.00,,,0.00,WUHU216HW,2013-07-27 00:07:00,
2013-07-26 20:12:00,64.6,54.7,29.92,North,0,0.0,0.0,70,0.00,,,0.00,WUHU216HW,2013-07-27 00:12:00,
2013-07-26 20:17:00,64.4,54.5,29.92,North,0,0.0,0.0,70,0.00,,,0.00,WUHU216HW,2013-07-27 00:17:00,
2013-07-26 20:22:00,64.1,54.2,29.92,North,0,0.0,0.0,70,0.00,,,0.00,WUHU216HW,2013-07-27 00:22:00,
2013-07-26 20:27:00,63.7,53.8,29.92,North,0,0.0,0.0,70,0.00,,,0.00,WUHU216HW,2013-07-27 00:27:00,
2013-07-26 20:32:00,63.2,52.8,29.92,North,0,0.0,0.0,69,0.00,,,0.00,WUHU216HW,2013-07-27 00:32:00,
2013-07-26 20:38:00,63.0,52.7,29.92,North,0,0.0,0.0,69,0.00,,,0.00,WUHU216HW,2013-07-27 00:38:00,
2013-07-26 20:43:00,62.8,52.5,29.92,North,0,0.0,0.0,69,0.00,,,0.00,WUHU216HW,2013-07-27 00:43:00,
2013-07-26 20:48:00,62.5,52.2,29.92,North,0,0.0,0.0,69,0.00,,,0.00,WUHU216HW,2013-07-27 00:48:00,
2013-07-26 20:53:00,62.1,51.8,29.92,North,0,0.0,0.0,69,0.00,,,0.00,WUHU216HW,2013-07-27 00:53:00,
2013-07-26 20:58:00,61.7,51.5,29.91,North,0,0.0,0.0,69,0.00,,,0.00,WUHU216HW,2013-07-27 00:58:00,
2013-07-26 21:03:00,61.6,50.9,29.92,North,0,0.0,0.0,68,0.00,,,0.00,WUHU216HW,2013-07-27 01:03:00,
2013-07-26 21:08:00,61.4,50.8,29.92,North,0,0.0,0.0,68,0.00,,,0.00,WUHU216HW,2013-07-27 01:08:00,
2013-07-26 21:13:00,61.0,49.2,29.92,North,0,0.0,0.0,65,0.00,,,0.00,WUHU216HW,2013-07-27 01:13:00,
2013-07-26 21:18:00,60.8,49.1,29.93,North,0,0.0,0.0,65,0.00,,,0.00,WUHU216HW,2013-07-27 01:18:00,
2013-07-26 21:23:00,60.7,48.9,29.93,North,0,0.0,0.0,65,0.00,,,0.00,WUHU216HW,2013-07-27 01:23:00,
2013-07-26 21:28:00,60.1,46.7,29.93,North,0,0.0,0.0,61,0.00,,,0.00,WUHU216HW,2013-07-27 01:28:00,
2013-07-26 21:33:00,59.8,45.5,29.93,North,0,0.0,0.0,59,0.00,,,0.00,WUHU216HW,2013-07-27 01:33:00,
2013-07-26 21:38:00,59.6,44.7,29.93,North,0,0.0,0.0,58,0.00,,,0.00,WUHU216HW,2013-07-27 01:38:00,
2013-07-26 21:43:00,59.4,43.7,29.93,North,0,0.0,0.0,56,0.00,,,0.00,WUHU216HW,2013-07-27 01:43:00,
2013-07-26 21:48:00,59.2,43.5,29.93,North,0,0.0,0.0,56,0.00,,,0.00,WUHU216HW,2013-07-27 01:48:00,
2013-07-26 21:53:00,59.2,43.9,29.93,North,0,0.0,0.0,57,0.00,,,0.00,WUHU216HW,2013-07-27 01:53:00,
2013-07-26 21:58:00,59.0,44.3,29.93,North,0,0.0,0.0,58,0.00,,,0.00,WUHU216HW,2013-07-27 01:58:00,
2013-07-26 22:03:00,58.9,43.7,29.94,North,0,0.0,0.0,57,0.00,,,0.00,WUHU216HW,2013-07-27 02:03:00,
2013-07-26 22:08:00,58.5,43.7,29.94,North,0,0.0,0.0,58,0.00,,,0.00,WUHU216HW,2013-07-27 02:08:00,
2013-07-26 22:13:00,58.3,43.6,29.93,North,0,0.0,0.0,58,0.00,,,0.00,WUHU216HW,2013-07-27 02:13:00,
2013-07-26 22:18:00,58.0,43.3,29.93,North,0,0.0,0.0,58,0.00,,,0.00,WUHU216HW,2013-07-27 02:18:00,
2013-07-26 22:23:00,58.0,42.9,29.93,North,0,0.0,0.0,57,0.00,,,0.00,WUHU216HW,2013-07-27 02:23:00,
2013-07-26 22:28:00,57.6,41.6,29.93,North,0,0.0,0.0,55,0.00,,,0.00,WUHU216HW,2013-07-27 02:28:00,
2013-07-26 22:33:00,57.4,40.4,29.94,North,0,0.0,0.0,53,0.00,,,0.00,WUHU216HW,2013-07-27 02:33:00,
2013-07-26 22:38:00,57.1,39.6,29.94,North,0,0.0,0.0,52,0.00,,,0.00,WUHU216HW,2013-07-27 02:38:00,
2013-07-26 22:43:00,57.1,39.6,29.94,North,0,0.0,0.0,52,0.00,,,0.00,WUHU216HW,2013-07-27 02:43:00,
2013-07-26 22:48:00,56.9,39.4,29.94,North,0,0.0,0.0,52,0.00,,,0.00,WUHU216HW,2013-07-27 02:48:00,
2013-07-26 22:53:00,56.7,39.8,29.94,North,0,0.0,0.0,53,0.00,,,0.00,WUHU216HW,2013-07-27 02:53:00,
2013-07-26 22:58:00,56.5,38.6,29.94,North,0,0.0,0.0,51,0.00,,,0.00,WUHU216HW,2013-07-27 02:58:00,
2013-07-26 23:03:00,56.3,37.5,29.94,North,0,0.0,0.0,49,0.00,,,0.00,WUHU216HW,2013-07-27 03:03:00,
2013-07-26 23:08:00,56.3,37.5,29.94,North,0,0.0,0.0,49,0.00,,,0.00,WUHU216HW,2013-07-27 03:08:00,
2013-07-26 23:13:00,56.2,35.0,29.94,North,0,0.0,0.0,45,0.00,,,0.00,WUHU216HW,2013-07-27 03:13:00,
2013-07-26 23:18:00,56.0,33.7,29.94,North,0,0.0,0.0,43,0.00,,,0.00,WUHU216HW,2013-07-27 03:18:00,
2013-07-26 23:23:00,56.2,33.8,29.94,North,0,0.0,0.0,43,0.00,,,0.00,WUHU216HW,2013-07-27 03:23:00,
2013-07-26 23:28:00,56.2,30.1,29.94,North,0,0.0,0.0,37,0.00,,,0.00,WUHU216HW,2013-07-27 03:28:00,
2013-07-26 23:33:00,56.2,27.9,29.94,North,0,0.0,0.0,34,0.00,,,0.00,WUHU216HW,2013-07-27 03:33:00,
2013-07-26 23:38:00,56.2,30.8,29.94,North,0,0.0,0.0,38,0.00,,,0.00,WUHU216HW,2013-07-27 03:38:00,
2013-07-26 23:43:00,56.2,30.8,29.94,North,0,0.0,0.0,38,0.00,,,0.00,WUHU216HW,2013-07-27 03:43:00,
2013-07-26 23:48:00,56.3,29.5,29.94,North,0,0.0,0.0,36,0.00,,,0.00,WUHU216HW,2013-07-27 03:48:00,
2013-07-26 23:53:00,56.3,26.0,29.95,North,0,0.0,0.0,31,0.00,,,0.00,WUHU216HW,2013-07-27 03:53:00,
2013-07-26 23:58:00,56.5,24.5,29.95,North,0,0.0,0.0,29,0.00,,,0.00,WUHU216HW,2013-07-27 03:58:00,